Decoded Metar for LFBT (TARBES in FRANCE) (IATA:LDE) | Meteo·Mobile Aviation Weather
aviador You're here:

LFBT Decoded Metar

TARBES in FRANCE
Report Time2019-02-22 00:00:00
UTC Time2019-02-22 00:23:34
Flight Rules vfr VFR
Wind160° at 06 kt
W.Decomp.*RWY 20: 4.6 kt HW 3.9 kt LCW
W.Rank160° ranks 7
Current wind is above 160° avg. (4.1)
Visibility9999 m
Phenomena:N/A
Clouds:N/A
Expected CloudBase > 3,600 ft AGL from Temp-Dew spread
CeilingNone
Temp08°C (ISA -5)
Dew Point-1°C (53% RH)
AAT3.7°C
QNH1031 hPa
Density Alt112 ft
Elevation1,191 ft
Report Wrong Elevation
Raw Report
LFBT 220000Z AUTO 16006KT CAVOK 08/M01 Q1031 NOSIG=

Extra information for LFBT:More info

Metar Taf Metar & Taf Last 4 Metars F.Rules Stats Wind Profile Meteogram Temp Stats Airport Information Weather charts Add Link Nearby VenuesMetar ALERT Operation Metar Decoded Social comments